Terminal Aerodrome Forecast
Issued by NWS Corpus Christi, TX

Home | Current Version | Previous Version | Text Only | Print | Product List | Glossary On
Versions: 1 2 3 4 5 6 7 8 9 10 11 12 13 14
000
FTUS44 KCRP 261128
TAFVCT
TAF
KVCT 261128Z 2612/2712 16008KT P6SM SCT025 BKN150
     FM261800 15014G19KT P6SM VCTS SCT035CB BKN120
      TEMPO 2618/2622 VRB20G30KT 5SM TSRA BR OVC025CB
     FM270100 15008KT P6SM SCT025 BKN250
     FM271000 VRB03KT 5SM BR SCT018=

USA.gov is the U.S. government's official web portal to all federal, state and local government web resources and services.